createdAt,value
2019-05-16T00:00:19.243Z,7.40
2019-05-16T00:02:49.944Z,7.40
2019-05-16T00:05:20.486Z,7.40
2019-05-16T00:07:52.744Z,7.30
2019-05-16T00:10:23.328Z,7.40
2019-05-16T00:12:54.276Z,7.30
2019-05-16T00:15:24.792Z,7.30
2019-05-16T00:17:55.282Z,7.30
2019-05-16T00:20:28.480Z,7.30
2019-05-16T00:22:59.591Z,7.30
2019-05-16T00:25:30.068Z,7.30
2019-05-16T00:28:01.065Z,7.20
2019-05-16T00:30:31.952Z,7.20
2019-05-16T00:33:02.512Z,7.30
2019-05-16T00:35:33.486Z,7.20
2019-05-16T00:38:04.385Z,7.20
2019-05-16T00:40:34.899Z,7.20
2019-05-16T00:43:07.858Z,7.20
2019-05-16T00:45:38.516Z,7.20
2019-05-16T00:48:09.179Z,7.10
2019-05-16T00:50:40.855Z,7.20
2019-05-16T00:53:11.324Z,7.20
2019-05-16T00:55:43.024Z,7.20
2019-05-16T00:58:15.056Z,7.20
2019-05-16T01:00:49.888Z,7.10
2019-05-16T01:03:20.823Z,7.10
2019-05-16T01:05:51.815Z,7.20
2019-05-16T01:08:23.093Z,7.20
2019-05-16T01:10:53.607Z,7.10
2019-05-16T01:13:24.135Z,7.20
2019-05-16T01:15:54.598Z,7.10
2019-05-16T01:18:25.130Z,7.20
2019-05-16T01:20:58.398Z,7.10
2019-05-16T01:23:28.376Z,7.10
2019-05-16T01:25:59.359Z,7.10
2019-05-16T01:28:29.912Z,7.10
2019-05-16T01:31:00.841Z,7.30
2019-05-16T01:33:31.392Z,7.60
2019-05-16T01:36:01.972Z,7.90
2019-05-16T01:38:33.343Z,7.90
2019-05-16T01:41:04.260Z,8.10
2019-05-16T01:43:34.807Z,8.10
2019-05-16T01:46:05.835Z,8.20
2019-05-16T01:48:38.916Z,8.30
2019-05-16T01:51:09.396Z,8.30
2019-05-16T01:53:40.936Z,8.10
2019-05-16T01:56:11.431Z,7.90
2019-05-16T01:58:41.867Z,7.70
2019-05-16T02:01:15.735Z,7.60
2019-05-16T02:03:44.976Z,7.50
2019-05-16T02:06:18.186Z,7.40
2019-05-16T02:08:48.696Z,7.30
2019-05-16T02:11:20.366Z,7.10
2019-05-16T02:13:50.872Z,7.00
2019-05-16T02:16:21.843Z,7.00
2019-05-16T02:18:52.919Z,7.00
2019-05-16T02:21:23.482Z,7.00
2019-05-16T02:23:55.016Z,7.00
2019-05-16T02:26:28.320Z,7.00
2019-05-16T02:29:00.673Z,6.90
2019-05-16T02:31:31.524Z,6.90
2019-05-16T02:34:04.827Z,6.90
2019-05-16T02:36:35.414Z,6.90
2019-05-16T02:39:10.884Z,6.90
2019-05-16T02:41:42.601Z,6.90
2019-05-16T02:44:13.442Z,6.90
2019-05-16T02:46:43.974Z,6.90
2019-05-16T02:49:14.936Z,6.90
2019-05-16T02:51:45.545Z,6.90
2019-05-16T02:54:16.426Z,6.90
2019-05-16T02:56:46.877Z,6.80
2019-05-16T02:59:20.360Z,6.90
2019-05-16T03:01:52.128Z,6.80
2019-05-16T03:04:22.139Z,6.80
2019-05-16T03:06:53.632Z,6.80
2019-05-16T03:09:24.924Z,6.70
2019-05-16T03:11:57.663Z,6.70
2019-05-16T03:14:31.544Z,6.60
2019-05-16T03:17:04.780Z,6.60
2019-05-16T03:19:41.488Z,6.50
2019-05-16T03:22:11.970Z,6.40
2019-05-16T03:24:42.505Z,6.40
2019-05-16T03:27:13.465Z,6.30
2019-05-16T03:29:44.033Z,6.30
2019-05-16T03:32:14.718Z,6.30
2019-05-16T03:34:45.823Z,6.20
2019-05-16T03:37:16.291Z,6.20
2019-05-16T03:39:51.238Z,6.10
2019-05-16T03:42:20.603Z,6.10
2019-05-16T03:44:51.785Z,6.10
2019-05-16T03:47:22.297Z,6.10
2019-05-16T03:49:52.807Z,6.10
2019-05-16T03:52:23.374Z,6.10
2019-05-16T03:54:53.887Z,6.10
2019-05-16T03:57:25.242Z,6.10
2019-05-16T03:59:55.797Z,6.10
2019-05-16T04:02:26.292Z,6.10
2019-05-16T04:04:56.917Z,6.20
2019-05-16T04:07:31.414Z,6.20
2019-05-16T04:10:02.384Z,6.20
2019-05-16T04:12:34.568Z,6.20
2019-05-16T04:15:06.417Z,6.20
2019-05-16T04:17:40.825Z,6.20
2019-05-16T04:20:11.632Z,6.30
2019-05-16T04:22:42.821Z,6.30
2019-05-16T04:25:13.354Z,6.30
2019-05-16T04:27:44.391Z,6.30
2019-05-16T04:30:15.004Z,6.40
2019-05-16T04:32:46.052Z,6.40
2019-05-16T04:35:16.969Z,6.50
2019-05-16T04:37:51.054Z,6.50
2019-05-16T04:40:21.981Z,6.60
2019-05-16T04:42:51.900Z,6.70
2019-05-16T04:45:22.637Z,6.70
2019-05-16T04:47:53.319Z,6.70
2019-05-16T04:50:24.239Z,6.70
2019-05-16T04:52:55.714Z,6.90
2019-05-16T04:55:26.619Z,7.00
2019-05-16T04:57:57.141Z,6.90
2019-05-16T05:00:27.607Z,7.00
2019-05-16T05:03:01.255Z,7.10
2019-05-16T05:05:33.320Z,7.10
2019-05-16T05:08:02.819Z,7.10
2019-05-16T05:10:33.292Z,7.20
2019-05-16T05:13:03.824Z,7.30
2019-05-16T05:15:34.834Z,7.50
2019-05-16T05:18:05.826Z,7.70
2019-05-16T05:20:36.930Z,7.70
2019-05-16T05:23:09.750Z,7.70
2019-05-16T05:25:40.394Z,7.60
2019-05-16T05:28:13.546Z,7.70
2019-05-16T05:30:43.685Z,7.60
2019-05-16T05:33:14.217Z,7.70
2019-05-16T05:35:44.763Z,7.80
2019-05-16T05:38:15.274Z,7.80
2019-05-16T05:40:46.429Z,7.80
2019-05-16T05:43:16.900Z,7.80
2019-05-16T05:45:47.441Z,7.80
2019-05-16T05:48:17.945Z,7.80
2019-05-16T05:50:50.866Z,7.70
2019-05-16T05:53:21.315Z,7.80
2019-05-16T05:55:51.982Z,8.00
2019-05-16T05:58:22.500Z,8.20
2019-05-16T06:00:53.033Z,8.40
2019-05-16T06:03:24.398Z,8.40
2019-05-16T06:05:54.977Z,8.40
2019-05-16T06:08:25.474Z,8.50
2019-05-16T06:10:56.909Z,8.60
2019-05-16T06:13:27.810Z,8.80
2019-05-16T06:16:00.178Z,8.90
2019-05-16T06:18:30.839Z,8.90
2019-05-16T06:21:02.385Z,9.00
2019-05-16T06:23:32.869Z,9.00
2019-05-16T06:26:03.410Z,8.90
2019-05-16T06:28:34.022Z,8.80
2019-05-16T06:31:05.359Z,8.80
2019-05-16T06:33:35.856Z,8.80
2019-05-16T06:36:06.475Z,8.90
2019-05-16T06:38:37.081Z,8.80
2019-05-16T06:41:07.616Z,8.80
2019-05-16T06:43:40.009Z,8.60
2019-05-16T06:46:11.008Z,8.60
2019-05-16T06:48:43.257Z,8.60
2019-05-16T06:51:13.754Z,8.70
2019-05-16T06:53:44.842Z,8.80
2019-05-16T06:56:15.418Z,8.90
2019-05-16T06:58:50.976Z,9.30
2019-05-16T07:01:20.874Z,9.40
2019-05-16T07:03:52.299Z,9.60
2019-05-16T07:06:47.390Z,9.50
2019-05-16T07:08:56.836Z,9.60
2019-05-16T07:11:27.898Z,9.60
2019-05-16T07:14:00.522Z,9.80
2019-05-16T07:16:30.561Z,9.70
2019-05-16T07:19:01.448Z,9.80
2019-05-16T07:21:32.057Z,9.90
2019-05-16T07:24:02.562Z,9.90
2019-05-16T07:26:33.109Z,9.70
2019-05-16T07:29:03.851Z,9.70
2019-05-16T07:31:35.820Z,10.00
2019-05-16T07:34:09.878Z,10.30
2019-05-16T07:36:40.575Z,10.60
2019-05-16T07:46:31.566Z,11.00
2019-05-16T07:54:53.373Z,11.40
2019-05-16T07:57:23.977Z,11.60
2019-05-16T07:59:55.851Z,11.90
2019-05-16T08:02:26.588Z,12.20
2019-05-16T08:04:57.241Z,12.40
2019-05-16T08:07:27.781Z,12.60
2019-05-16T08:09:59.892Z,12.30
2019-05-16T08:12:33.057Z,12.40
2019-05-16T08:15:03.792Z,12.60
2019-05-16T08:17:34.577Z,12.60
2019-05-16T08:20:05.331Z,12.50
2019-05-16T08:22:35.869Z,12.60
2019-05-16T08:25:07.084Z,12.50
2019-05-16T08:27:40.969Z,12.50
2019-05-16T08:30:11.625Z,12.60
2019-05-16T08:32:42.734Z,12.60
2019-05-16T08:35:14.757Z,12.70
2019-05-16T08:37:47.073Z,13.10
2019-05-16T08:40:21.463Z,13.00
2019-05-16T08:42:52.307Z,12.90
2019-05-16T08:45:23.218Z,12.80
2019-05-16T08:47:54.217Z,13.00
2019-05-16T08:50:25.281Z,13.00
2019-05-16T08:52:56.363Z,13.00
2019-05-16T08:55:26.855Z,12.80
2019-05-16T08:58:01.917Z,12.70
2019-05-16T09:00:33.510Z,12.80
2019-05-16T09:03:02.894Z,12.90
2019-05-16T09:05:33.861Z,12.60
2019-05-16T09:08:05.510Z,12.60
2019-05-16T09:10:55.801Z,13.00
2019-05-16T09:13:09.126Z,13.10
2019-05-16T09:15:39.990Z,13.30
2019-05-16T09:18:10.576Z,13.30
2019-05-16T09:20:42.955Z,13.50
2019-05-16T09:23:13.133Z,13.80
2019-05-16T09:25:43.710Z,13.80
2019-05-16T09:28:16.798Z,13.80
2019-05-16T09:30:47.317Z,13.90
2019-05-16T09:33:18.707Z,13.70
2019-05-16T09:35:49.189Z,13.60
2019-05-16T09:38:23.608Z,13.70
2019-05-16T09:40:53.712Z,13.70
2019-05-16T09:43:24.204Z,13.60
2019-05-16T09:46:02.662Z,13.80
2019-05-16T09:48:28.193Z,14.00
2019-05-16T09:50:58.765Z,14.20
2019-05-16T09:53:29.680Z,13.90
2019-05-16T09:56:01.192Z,13.90
2019-05-16T09:58:32.249Z,13.60
2019-05-16T10:01:02.832Z,13.60
2019-05-16T10:03:33.534Z,13.60
2019-05-16T10:06:04.293Z,13.70
2019-05-16T10:08:37.294Z,13.80
2019-05-16T10:11:07.533Z,13.90
2019-05-16T10:13:38.074Z,13.90
2019-05-16T10:16:09.110Z,13.80
2019-05-16T10:18:39.639Z,13.80
2019-05-16T10:21:10.128Z,13.90
2019-05-16T10:23:41.506Z,14.00
2019-05-16T10:26:12.056Z,14.20
2019-05-16T10:28:43.085Z,14.20
2019-05-16T10:31:14.562Z,14.30
2019-05-16T10:33:47.700Z,14.40
2019-05-16T10:36:21.624Z,14.50
2019-05-16T10:38:50.756Z,14.40
2019-05-16T10:41:21.694Z,14.40
2019-05-16T10:43:52.726Z,14.30
2019-05-16T10:46:23.252Z,14.40
2019-05-16T10:48:53.716Z,14.40
2019-05-16T10:51:26.713Z,14.50
2019-05-16T10:54:08.534Z,14.40
2019-05-16T10:56:29.334Z,14.40
2019-05-16T10:59:37.777Z,14.50
2019-05-16T11:01:32.540Z,14.50
2019-05-16T11:04:03.181Z,14.70
2019-05-16T11:06:34.228Z,14.90
2019-05-16T11:09:06.560Z,15.00
2019-05-16T11:11:38.928Z,14.80
2019-05-16T11:14:09.793Z,14.90
2019-05-16T11:16:40.752Z,15.10
2019-05-16T11:19:17.378Z,15.30
2019-05-16T11:21:46.708Z,15.60
2019-05-16T11:24:16.429Z,15.80
2019-05-16T11:26:47.325Z,16.00
2019-05-16T11:29:19.084Z,15.90
2019-05-16T11:31:49.902Z,15.90
2019-05-16T11:34:20.463Z,16.00
2019-05-16T11:36:50.997Z,15.90
2019-05-16T11:39:21.637Z,16.00
2019-05-16T11:41:52.282Z,16.30
2019-05-16T11:44:27.964Z,16.60
2019-05-16T11:46:57.598Z,16.70
2019-05-16T11:49:29.651Z,16.50
2019-05-16T11:52:00.856Z,16.50
2019-05-16T11:54:31.472Z,16.60
2019-05-16T11:57:02.839Z,16.70
2019-05-16T11:59:33.885Z,16.90
2019-05-16T12:02:04.453Z,16.80
2019-05-16T12:04:37.323Z,16.80
2019-05-16T12:07:19.437Z,16.50
2019-05-16T12:09:55.827Z,16.30
2019-05-16T12:12:27.183Z,16.10
2019-05-16T12:14:58.419Z,16.20
2019-05-16T12:17:29.112Z,16.30
2019-05-16T12:19:59.604Z,16.30
2019-05-16T12:22:30.125Z,16.10
2019-05-16T12:25:01.126Z,16.10
2019-05-16T12:27:33.470Z,15.90
2019-05-16T12:30:12.925Z,15.70
2019-05-16T12:32:37.474Z,15.50
2019-05-16T12:35:10.549Z,15.40
2019-05-16T12:37:41.754Z,15.20
2019-05-16T12:40:12.364Z,15.00
2019-05-16T12:42:42.885Z,15.00
2019-05-16T12:45:14.326Z,14.90
2019-05-16T12:47:47.247Z,14.90
2019-05-16T12:50:19.069Z,14.90
2019-05-16T12:52:49.597Z,14.60
2019-05-16T12:55:22.161Z,14.30
2019-05-16T12:57:56.727Z,14.30
2019-05-16T13:00:27.626Z,14.10
2019-05-16T13:02:58.408Z,14.00
2019-05-16T13:05:28.956Z,14.00
2019-05-16T13:07:59.450Z,13.80
2019-05-16T13:10:29.953Z,13.80
2019-05-16T13:13:01.335Z,13.60
2019-05-16T13:15:32.969Z,13.40
2019-05-16T13:18:04.146Z,13.50
2019-05-16T13:20:38.244Z,13.40
2019-05-16T13:23:14.490Z,13.30
2019-05-16T13:25:39.735Z,13.20
2019-05-16T13:28:10.304Z,13.20
2019-05-16T13:30:41.721Z,13.10
2019-05-16T13:33:12.480Z,13.00
2019-05-16T13:35:42.972Z,13.00
2019-05-16T13:38:16.981Z,12.90
2019-05-16T13:40:46.932Z,12.90
2019-05-16T13:43:17.619Z,12.80
2019-05-16T13:45:48.661Z,12.60
2019-05-16T13:48:19.642Z,12.50
2019-05-16T13:50:50.137Z,12.50
2019-05-16T13:53:20.678Z,12.50
2019-05-16T13:55:51.187Z,12.50
2019-05-16T13:58:22.128Z,12.40
2019-05-16T14:00:53.170Z,12.30
2019-05-16T14:03:24.122Z,12.30
2019-05-16T14:05:54.706Z,12.30
2019-05-16T14:08:26.829Z,12.30
2019-05-16T14:11:01.499Z,12.30
2019-05-16T14:13:30.402Z,12.20
2019-05-16T14:16:01.234Z,12.20
2019-05-16T14:18:33.021Z,12.20
2019-05-16T14:21:06.739Z,12.30
2019-05-16T14:23:38.196Z,12.30
2019-05-16T14:26:09.994Z,12.30
2019-05-16T14:28:44.421Z,12.30
2019-05-16T14:31:13.664Z,12.20
2019-05-16T14:33:46.986Z,12.20
2019-05-16T14:36:16.926Z,12.20
2019-05-16T14:38:47.474Z,12.20
2019-05-16T14:41:18.043Z,12.20
2019-05-16T14:43:48.621Z,12.10
2019-05-16T14:46:20.593Z,12.10
2019-05-16T14:48:52.140Z,12.10
2019-05-16T14:51:22.618Z,12.20
2019-05-16T14:53:53.510Z,12.20
2019-05-16T14:56:26.856Z,12.20
2019-05-16T14:58:57.618Z,12.30
2019-05-16T15:01:28.314Z,12.40
2019-05-16T15:03:58.875Z,12.40
2019-05-16T15:06:30.368Z,12.40
2019-05-16T15:09:00.907Z,12.30
2019-05-16T15:11:33.011Z,12.30
2019-05-16T15:14:03.601Z,12.10
2019-05-16T15:16:34.088Z,12.10
2019-05-16T15:19:04.711Z,12.10
2019-05-16T15:21:36.077Z,12.20
2019-05-16T15:24:07.038Z,12.10
2019-05-16T15:26:37.802Z,12.10
2019-05-16T15:29:08.399Z,12.10
2019-05-16T15:31:39.561Z,12.20
2019-05-16T15:34:10.866Z,12.30
2019-05-16T15:36:41.934Z,12.20
2019-05-16T15:39:12.455Z,12.20
2019-05-16T15:41:43.511Z,12.20
2019-05-16T15:44:16.928Z,12.20
2019-05-16T15:46:47.810Z,12.20
2019-05-16T15:49:19.466Z,12.20
2019-05-16T15:51:50.725Z,12.20
2019-05-16T15:54:24.089Z,12.20
2019-05-16T15:56:54.656Z,12.10
2019-05-16T15:59:27.190Z,12.10
2019-05-16T16:01:58.070Z,12.10
2019-05-16T16:04:29.110Z,12.10
2019-05-16T16:06:59.814Z,12.00
2019-05-16T16:09:31.402Z,12.00
2019-05-16T16:12:01.989Z,11.80
2019-05-16T16:14:36.741Z,11.80
2019-05-16T16:17:06.968Z,11.70
2019-05-16T16:19:37.475Z,11.70
2019-05-16T16:22:08.002Z,11.60
2019-05-16T16:24:38.601Z,11.60
2019-05-16T16:27:09.174Z,11.50
2019-05-16T16:29:40.504Z,11.50
2019-05-16T16:32:11.924Z,11.50
2019-05-16T16:34:42.428Z,11.50
2019-05-16T16:37:13.274Z,11.40
2019-05-16T16:39:46.989Z,11.30
2019-05-16T16:42:16.370Z,11.30
2019-05-16T16:44:47.298Z,11.30
2019-05-16T16:47:18.686Z,11.30
2019-05-16T16:49:50.164Z,11.20
2019-05-16T16:52:20.709Z,11.20
2019-05-16T16:54:52.506Z,11.30
2019-05-16T16:57:22.996Z,11.30
2019-05-16T16:59:54.323Z,11.30
2019-05-16T17:02:27.605Z,11.20
2019-05-16T17:05:01.571Z,11.20
2019-05-16T17:07:29.776Z,11.20
2019-05-16T17:10:00.394Z,11.20
2019-05-16T17:12:31.885Z,11.10
2019-05-16T17:15:08.115Z,11.10
2019-05-16T17:17:37.726Z,11.10
2019-05-16T17:20:10.104Z,11.00
2019-05-16T17:22:40.769Z,10.90
2019-05-16T17:25:12.356Z,10.90
2019-05-16T17:27:43.470Z,10.90
2019-05-16T17:30:20.873Z,10.90
2019-05-16T17:32:51.997Z,10.80
2019-05-16T17:35:23.009Z,10.80
2019-05-16T17:37:53.605Z,10.80
2019-05-16T17:40:24.118Z,10.80
2019-05-16T17:42:56.835Z,10.80
2019-05-16T17:45:28.655Z,10.80
2019-05-16T17:47:59.435Z,10.80
2019-05-16T17:50:30.559Z,10.80
2019-05-16T17:53:01.153Z,10.80
2019-05-16T17:55:31.838Z,10.80
2019-05-16T17:58:05.633Z,10.80
2019-05-16T18:00:38.788Z,10.80
2019-05-16T18:03:09.812Z,10.70
2019-05-16T18:05:40.786Z,10.80
2019-05-16T18:08:11.326Z,10.80
2019-05-16T18:10:42.794Z,10.70
2019-05-16T18:13:14.722Z,10.70
2019-05-16T18:15:47.286Z,10.70
2019-05-16T18:18:17.985Z,10.70
2019-05-16T18:20:57.969Z,10.70
2019-05-16T18:23:22.113Z,10.70
2019-05-16T18:25:53.918Z,10.70
2019-05-16T18:28:26.762Z,10.70
2019-05-16T18:30:58.899Z,10.90
2019-05-16T18:33:30.500Z,11.00
2019-05-16T18:36:01.225Z,11.10
2019-05-16T18:38:38.988Z,11.10
2019-05-16T18:41:10.464Z,11.10
2019-05-16T18:43:42.561Z,11.00
2019-05-16T18:46:13.159Z,10.90
2019-05-16T18:48:47.265Z,10.80
2019-05-16T18:51:19.510Z,10.70
2019-05-16T18:53:50.501Z,10.70
2019-05-16T18:56:23.353Z,10.60
2019-05-16T18:58:57.067Z,10.60
2019-05-16T19:01:27.520Z,10.60
2019-05-16T19:03:58.746Z,10.50
2019-05-16T19:06:30.660Z,10.50
2019-05-16T19:09:02.551Z,10.50
2019-05-16T19:11:36.585Z,10.40
2019-05-16T19:14:07.622Z,10.40
2019-05-16T19:16:38.890Z,10.40
2019-05-16T19:19:09.468Z,10.40
2019-05-16T19:21:40.770Z,10.40
2019-05-16T19:24:11.946Z,10.30
2019-05-16T19:26:42.468Z,10.30
2019-05-16T19:29:17.166Z,10.30
2019-05-16T19:31:50.275Z,10.20
2019-05-16T19:34:19.960Z,10.20
2019-05-16T19:36:51.728Z,10.20
2019-05-16T19:39:22.343Z,10.20
2019-05-16T19:41:53.025Z,10.20
2019-05-16T19:44:23.905Z,10.20
2019-05-16T19:46:57.433Z,10.20
2019-05-16T19:49:28.074Z,10.10
2019-05-16T19:51:59.777Z,10.10
2019-05-16T19:54:32.565Z,10.20
2019-05-16T19:57:03.136Z,10.10
2019-05-16T19:59:33.688Z,10.10
2019-05-16T20:02:07.480Z,10.10
2019-05-16T20:04:37.502Z,10.10
2019-05-16T20:07:08.178Z,10.10
2019-05-16T20:09:38.745Z,10.10
2019-05-16T20:12:09.917Z,10.10
2019-05-16T20:14:40.505Z,10.10
2019-05-16T20:17:11.020Z,10.00
2019-05-16T20:19:41.613Z,10.00
2019-05-16T20:22:12.132Z,10.00
2019-05-16T20:24:42.636Z,10.00
2019-05-16T20:27:13.542Z,10.10
2019-05-16T20:29:47.435Z,10.10
2019-05-16T20:32:18.314Z,10.00
2019-05-16T20:34:49.319Z,10.00
2019-05-16T20:37:20.867Z,10.10
2019-05-16T20:39:51.976Z,10.00
2019-05-16T20:42:23.203Z,10.00
2019-05-16T20:44:54.129Z,10.00
2019-05-16T20:47:27.139Z,10.00
2019-05-16T20:49:58.296Z,10.00
2019-05-16T20:52:29.427Z,10.00
2019-05-16T20:54:59.924Z,10.00
2019-05-16T20:57:30.949Z,9.90
2019-05-16T21:00:01.960Z,9.90
2019-05-16T21:02:33.039Z,9.90
2019-05-16T21:05:03.541Z,9.90
2019-05-16T21:07:37.149Z,9.90
2019-05-16T21:10:08.424Z,9.90
2019-05-16T21:12:40.435Z,9.80
2019-05-16T21:15:11.272Z,9.80
2019-05-16T21:17:41.816Z,9.80
2019-05-16T21:20:12.481Z,9.80
2019-05-16T21:22:43.522Z,9.80
2019-05-16T21:25:16.912Z,9.80
2019-05-16T21:27:47.906Z,9.80
2019-05-16T21:30:27.371Z,9.70
2019-05-16T21:33:05.984Z,9.80
2019-05-16T21:35:37.104Z,9.70
2019-05-16T21:38:08.992Z,9.70
2019-05-16T21:40:40.569Z,9.70
2019-05-16T21:43:11.206Z,9.70
2019-05-16T21:45:42.247Z,9.70
2019-05-16T21:48:12.986Z,9.60
2019-05-16T21:50:46.278Z,9.60
2019-05-16T21:53:17.804Z,9.50
2019-05-16T21:55:50.715Z,9.50
2019-05-16T21:58:21.500Z,9.50
2019-05-16T22:00:56.835Z,9.50
2019-05-16T22:03:27.970Z,9.50
2019-05-16T22:05:58.950Z,9.50
2019-05-16T22:08:30.153Z,9.50
2019-05-16T22:11:03.254Z,9.40
2019-05-16T22:13:37.032Z,9.40
2019-05-16T22:16:08.374Z,9.40
2019-05-16T22:18:38.925Z,9.30
2019-05-16T22:21:09.904Z,9.30
2019-05-16T22:23:41.451Z,9.20
2019-05-16T22:26:12.500Z,9.20
2019-05-16T22:28:43.097Z,9.10
2019-05-16T22:31:16.180Z,9.10
2019-05-16T22:33:58.429Z,9.10
2019-05-16T22:36:29.202Z,9.10
2019-05-16T22:38:59.987Z,9.00
2019-05-16T22:41:30.552Z,9.00
2019-05-16T22:44:01.265Z,9.00
2019-05-16T22:46:31.942Z,8.90
2019-05-16T22:49:02.914Z,8.90
2019-05-16T22:51:33.416Z,8.80
2019-05-16T22:54:04.019Z,8.80
2019-05-16T22:56:34.664Z,8.80
2019-05-16T22:59:17.540Z,8.80
2019-05-16T23:01:48.446Z,8.80
2019-05-16T23:04:19.213Z,8.80
2019-05-16T23:06:49.725Z,8.70
2019-05-16T23:09:20.742Z,8.70
2019-05-16T23:11:51.272Z,8.70
2019-05-16T23:14:21.874Z,8.70
2019-05-16T23:16:52.408Z,8.70
2019-05-16T23:19:23.979Z,8.60
2019-05-16T23:21:56.872Z,8.70
2019-05-16T23:24:27.503Z,8.60
2019-05-16T23:26:58.053Z,8.60
2019-05-16T23:29:28.604Z,8.60
2019-05-16T23:31:59.501Z,8.60
2019-05-16T23:34:30.389Z,8.50
2019-05-16T23:37:01.485Z,8.50
2019-05-16T23:39:32.561Z,8.50
2019-05-16T23:42:03.188Z,8.50
2019-05-16T23:44:33.696Z,8.50
2019-05-16T23:47:06.876Z,8.50
2019-05-16T23:49:36.930Z,8.50
2019-05-16T23:52:07.616Z,8.40
2019-05-16T23:54:38.200Z,8.40
2019-05-16T23:57:08.733Z,8.40
2019-05-16T23:59:39.390Z,8.40
